createdAt,value
2023-03-20T00:00:39.798Z,19.13
2023-03-20T00:05:42.733Z,22.42
2023-03-20T00:10:47.419Z,23.98
2023-03-20T00:15:52.110Z,26.25
2023-03-20T00:20:54.955Z,29.80
2023-03-20T00:25:57.905Z,28.45
2023-03-20T00:31:02.314Z,32.20
2023-03-20T00:36:06.567Z,34.70
2023-03-20T00:41:22.555Z,33.13
2023-03-20T00:46:27.330Z,34.47
2023-03-20T00:51:30.482Z,36.42
2023-03-20T00:56:37.690Z,38.45
2023-03-20T01:01:43.292Z,40.30
2023-03-20T01:06:46.330Z,46.15
2023-03-20T01:11:51.098Z,46.13
2023-03-20T01:16:56.028Z,48.00
2023-03-20T01:22:02.705Z,47.67
2023-03-20T01:27:12.770Z,50.97
2023-03-20T01:32:20.086Z,49.72
2023-03-20T01:37:28.914Z,50.40
2023-03-20T01:42:36.921Z,54.67
2023-03-20T01:47:42.265Z,54.83
2023-03-20T01:52:48.963Z,53.50
2023-03-20T01:57:56.805Z,49.83
2023-03-20T02:03:08.945Z,48.92
2023-03-20T02:08:33.652Z,46.65
2023-03-20T02:13:40.764Z,43.92
2023-03-20T02:18:48.864Z,45.00
2023-03-20T02:24:32.222Z,44.03
2023-03-20T02:30:12.533Z,45.25
2023-03-20T02:35:33.974Z,44.13
2023-03-20T02:40:45.894Z,43.15
2023-03-20T02:45:54.964Z,44.13
2023-03-20T02:51:04.811Z,44.00
2023-03-20T02:56:20.212Z,47.10
2023-03-20T03:01:29.074Z,44.30
2023-03-20T03:06:33.644Z,43.75
2023-03-20T03:11:44.990Z,45.63
2023-03-20T03:16:52.751Z,43.40
2023-03-20T03:21:56.312Z,41.90
2023-03-20T03:27:03.683Z,43.35
2023-03-20T03:32:08.422Z,44.55
2023-03-20T03:37:22.306Z,44.25
2023-03-20T03:42:34.017Z,39.92
2023-03-20T03:47:42.980Z,40.67
2023-03-20T03:52:49.334Z,37.05
2023-03-20T03:57:58.700Z,39.17
2023-03-20T04:03:03.771Z,39.65
2023-03-20T04:08:16.270Z,42.78
2023-03-20T04:13:20.612Z,36.00
2023-03-20T04:18:24.520Z,37.92
2023-03-20T04:23:27.505Z,37.78
2023-03-20T04:28:31.909Z,38.33
2023-03-20T04:33:58.605Z,35.63
2023-03-20T04:39:27.642Z,39.30
2023-03-20T04:44:32.353Z,34.65
2023-03-20T04:49:35.435Z,37.78
2023-03-20T04:54:44.722Z,36.65
2023-03-20T04:59:50.036Z,39.78
2023-03-20T05:04:56.009Z,39.58
2023-03-20T05:09:58.919Z,41.75
2023-03-20T05:15:03.927Z,41.75
2023-03-20T05:20:25.889Z,40.70
2023-03-20T05:25:49.526Z,39.85
2023-03-20T05:31:26.709Z,39.50
2023-03-20T05:36:49.658Z,38.25
2023-03-20T05:42:11.573Z,38.63
2023-03-20T05:47:26.252Z,40.30
2023-03-20T05:52:57.514Z,38.97
2023-03-20T05:58:19.869Z,41.55
2023-03-20T06:03:33.422Z,41.30
2023-03-20T06:08:46.753Z,38.58
2023-03-20T06:13:54.614Z,41.00
2023-03-20T06:18:59.748Z,38.90
2023-03-20T06:24:02.756Z,37.33
2023-03-20T06:29:07.292Z,37.10
2023-03-20T06:34:14.172Z,37.70
2023-03-20T06:39:21.615Z,31.45
2023-03-20T06:44:32.667Z,29.88
2023-03-20T06:49:52.138Z,30.67
2023-03-20T06:54:57.989Z,33.75
2023-03-20T07:00:03.173Z,30.52
2023-03-20T07:05:08.578Z,28.17
2023-03-20T07:10:13.431Z,29.35
2023-03-20T07:15:24.694Z,27.35
2023-03-20T07:20:29.119Z,24.85
2023-03-20T07:25:42.371Z,24.42
2023-03-20T07:30:49.725Z,21.48
2023-03-20T07:35:55.073Z,22.67
2023-03-20T07:40:59.356Z,25.98
2023-03-20T07:46:03.776Z,23.30
2023-03-20T07:51:08.876Z,20.83
2023-03-20T07:56:18.821Z,23.00
2023-03-20T08:01:21.718Z,24.92
2023-03-20T08:06:28.883Z,21.65
2023-03-20T08:11:37.315Z,25.23
2023-03-20T08:16:40.253Z,23.98
2023-03-20T08:21:44.586Z,23.40
2023-03-20T08:26:47.722Z,21.52
2023-03-20T08:31:53.373Z,21.15
2023-03-20T08:36:57.620Z,20.45
2023-03-20T08:42:01.984Z,21.40
2023-03-20T08:47:07.699Z,20.20
2023-03-20T08:52:13.759Z,20.30
2023-03-20T08:57:17.803Z,21.88
2023-03-20T09:02:21.973Z,19.83
2023-03-20T09:07:30.107Z,19.02
2023-03-20T09:12:33.029Z,19.15
2023-03-20T09:17:39.328Z,19.20
2023-03-20T09:22:47.232Z,19.67
2023-03-20T09:27:55.319Z,18.58
2023-03-20T09:32:58.479Z,14.93
2023-03-20T09:38:02.799Z,16.13
2023-03-20T09:43:18.826Z,18.30
2023-03-20T09:48:29.478Z,16.98
2023-03-20T09:53:38.488Z,19.00
2023-03-20T09:58:43.629Z,18.92
2023-03-20T10:03:53.876Z,19.65
2023-03-20T10:09:04.010Z,13.95
2023-03-20T10:14:22.766Z,16.15
2023-03-20T10:19:31.154Z,17.20
2023-03-20T10:24:40.889Z,14.88
2023-03-20T10:29:55.842Z,12.80
2023-03-20T10:35:12.784Z,10.32
2023-03-20T10:40:27.147Z,8.98
2023-03-20T10:45:39.545Z,7.18
2023-03-20T10:50:46.522Z,6.68
2023-03-20T10:55:52.297Z,6.35
2023-03-20T11:01:00.221Z,5.97
2023-03-20T11:06:09.968Z,5.32
2023-03-20T11:11:22.209Z,5.40
2023-03-20T11:16:26.905Z,5.00
2023-03-20T11:21:34.979Z,5.97
2023-03-20T11:26:41.182Z,4.80
2023-03-20T11:31:44.960Z,4.63
2023-03-20T11:37:09.236Z,4.93
2023-03-20T11:42:25.643Z,5.35
2023-03-20T11:47:34.908Z,4.75
2023-03-20T11:52:41.120Z,5.32
2023-03-20T11:57:50.061Z,4.65
2023-03-20T12:02:53.486Z,4.50
2023-03-20T12:07:58.966Z,2.85
2023-03-20T12:13:08.252Z,2.72
2023-03-20T12:18:26.125Z,3.20
2023-03-20T12:23:35.133Z,3.75
2023-03-20T12:28:49.047Z,3.53
2023-03-20T12:33:57.703Z,3.53
2023-03-20T12:39:03.097Z,3.58
2023-03-20T12:44:25.564Z,2.60
2023-03-20T12:49:46.451Z,3.05
2023-03-20T12:55:37.415Z,3.58
2023-03-20T13:00:50.287Z,4.03
2023-03-20T13:06:01.955Z,3.80
2023-03-20T13:11:17.007Z,3.75
2023-03-20T13:16:32.009Z,4.20
2023-03-20T13:21:43.478Z,4.07
2023-03-20T13:26:52.695Z,4.75
2023-03-20T13:32:09.527Z,3.60
2023-03-20T13:37:23.971Z,4.20
2023-03-20T13:42:33.012Z,3.47
2023-03-20T13:47:39.255Z,3.92
2023-03-20T13:52:49.495Z,3.33
2023-03-20T13:58:18.298Z,3.80
2023-03-20T14:03:28.525Z,3.45
2023-03-20T14:08:36.945Z,3.75
2023-03-20T14:13:41.435Z,3.28
2023-03-20T14:18:49.240Z,3.35
2023-03-20T14:24:03.334Z,4.40
2023-03-20T14:29:23.470Z,3.58
2023-03-20T14:34:27.945Z,3.45
2023-03-20T14:39:50.408Z,3.28
2023-03-20T14:45:26.400Z,3.30
2023-03-20T14:50:35.063Z,4.15
2023-03-20T14:56:06.528Z,3.88
2023-03-20T15:01:17.681Z,5.03
2023-03-20T15:06:27.414Z,4.00
2023-03-20T15:11:32.449Z,4.10
2023-03-20T15:16:38.718Z,3.10
2023-03-20T15:21:48.635Z,4.18
2023-03-20T15:26:57.044Z,5.53
2023-03-20T15:32:13.996Z,5.28
2023-03-20T15:37:23.040Z,6.00
2023-03-20T15:42:27.592Z,5.25
2023-03-20T15:47:31.251Z,5.10
2023-03-20T15:52:41.611Z,4.35
2023-03-20T15:57:47.281Z,5.32
2023-03-20T16:02:57.111Z,4.47
2023-03-20T16:08:15.185Z,5.93
2023-03-20T16:13:19.170Z,8.82
2023-03-20T16:18:23.161Z,4.40
2023-03-20T16:23:34.877Z,11.95
2023-03-20T16:28:43.587Z,8.60
2023-03-20T16:33:48.141Z,6.78
2023-03-20T16:39:03.156Z,5.65
2023-03-20T16:44:12.858Z,3.80
2023-03-20T16:49:50.479Z,4.22
2023-03-20T16:54:59.168Z,4.32
2023-03-20T17:00:08.999Z,4.63
2023-03-20T17:05:15.146Z,4.50
2023-03-20T17:10:22.101Z,4.35
2023-03-20T17:15:25.945Z,8.82
2023-03-20T17:20:30.850Z,3.67
2023-03-20T17:25:36.936Z,5.37
2023-03-20T17:30:39.724Z,8.63
2023-03-20T17:35:50.272Z,10.05
2023-03-20T17:40:54.656Z,5.68
2023-03-20T17:45:57.466Z,4.55
2023-03-20T17:51:00.815Z,3.30
2023-03-20T17:56:11.065Z,2.20
2023-03-20T18:01:15.584Z,2.22
2023-03-20T18:06:29.780Z,1.98
2023-03-20T18:11:39.052Z,4.22
2023-03-20T18:16:41.925Z,2.15
2023-03-20T18:21:46.762Z,3.28
2023-03-20T18:26:52.176Z,3.50
2023-03-20T18:31:57.310Z,7.55
2023-03-20T18:37:00.344Z,2.97
2023-03-20T18:42:04.730Z,2.35
2023-03-20T18:47:08.522Z,2.42
2023-03-20T18:52:15.253Z,2.03
2023-03-20T18:57:19.732Z,7.60
2023-03-20T19:02:22.571Z,6.55
2023-03-20T19:07:26.076Z,4.57
2023-03-20T19:12:30.490Z,5.53
2023-03-20T19:17:34.108Z,3.78
2023-03-20T19:22:37.125Z,3.67
2023-03-20T19:27:43.118Z,3.25
2023-03-20T19:32:46.943Z,3.75
2023-03-20T19:37:50.079Z,3.13
2023-03-20T19:43:02.371Z,2.80
2023-03-20T19:48:15.358Z,3.35
2023-03-20T19:53:20.909Z,3.17
2023-03-20T19:58:27.248Z,3.88
2023-03-20T20:03:30.246Z,2.70
2023-03-20T20:08:47.572Z,4.05
2023-03-20T20:14:09.787Z,4.20
2023-03-20T20:19:13.453Z,3.67
2023-03-20T20:24:18.273Z,8.15
2023-03-20T20:29:25.319Z,2.65
2023-03-20T20:39:54.484Z,3.55
2023-03-20T20:44:59.302Z,4.35
2023-03-20T20:50:04.010Z,3.50
2023-03-20T20:55:21.988Z,3.15
2023-03-20T21:00:47.606Z,2.72
2023-03-20T21:05:51.712Z,2.85
2023-03-20T21:10:55.319Z,3.08
2023-03-20T21:16:00.749Z,3.75
2023-03-20T21:21:09.375Z,5.28
2023-03-20T21:26:13.676Z,4.22
2023-03-20T21:31:28.432Z,5.15
2023-03-20T21:36:35.144Z,5.00
2023-03-20T21:41:38.751Z,5.85
2023-03-20T21:47:44.426Z,5.20
2023-03-20T22:03:09.893Z,4.47
2023-03-20T22:36:10.355Z,3.67
2023-03-20T22:46:22.593Z,3.10
2023-03-20T22:51:36.835Z,3.83
2023-03-20T22:56:44.004Z,3.72
2023-03-20T23:01:47.848Z,2.95
2023-03-20T23:06:52.110Z,3.13
2023-03-20T23:11:55.154Z,2.90
2023-03-20T23:16:58.073Z,4.40
2023-03-20T23:22:03.636Z,4.70
2023-03-20T23:27:06.525Z,3.38
2023-03-20T23:32:10.525Z,4.88
2023-03-20T23:37:20.711Z,5.35
2023-03-20T23:42:30.284Z,4.78
2023-03-20T23:47:44.678Z,5.80
2023-03-20T23:52:58.879Z,6.30
2023-03-20T23:58:06.788Z,5.30
